createdAt,value
2022-08-25T00:00:14.109Z,25.10
2022-08-25T00:02:41.651Z,25.20
2022-08-25T00:05:26.035Z,25.20
2022-08-25T00:07:55.499Z,25.30
2022-08-25T00:10:22.613Z,25.40
2022-08-25T00:12:49.723Z,25.30
2022-08-25T00:15:16.839Z,25.00
2022-08-25T00:17:44.081Z,25.00
2022-08-25T00:20:11.233Z,25.10
2022-08-25T00:22:38.335Z,25.20
2022-08-25T00:25:05.677Z,25.10
2022-08-25T00:27:32.881Z,24.80
2022-08-25T00:30:00.320Z,24.80
2022-08-25T00:32:27.445Z,24.70
2022-08-25T00:34:54.557Z,24.40
2022-08-25T00:37:21.697Z,24.60
2022-08-25T00:39:48.876Z,24.90
2022-08-25T00:42:16.441Z,25.00
2022-08-25T00:44:43.877Z,25.00
2022-08-25T00:47:11.109Z,24.80
2022-08-25T00:50:04.524Z,24.90
2022-08-25T00:52:32.657Z,24.60
2022-08-25T00:55:08.005Z,24.10
2022-08-25T00:57:55.897Z,24.00
2022-08-25T01:00:32.294Z,24.10
2022-08-25T01:02:59.697Z,23.90
2022-08-25T01:05:27.073Z,23.90
2022-08-25T01:08:03.234Z,23.90
2022-08-25T01:10:34.397Z,23.80
2022-08-25T01:13:03.296Z,23.60
2022-08-25T01:15:30.441Z,23.70
2022-08-25T01:17:57.926Z,23.60
2022-08-25T01:20:29.488Z,23.50
2022-08-25T01:22:57.378Z,23.40
2022-08-25T01:25:40.889Z,23.40
2022-08-25T01:28:32.865Z,23.30
2022-08-25T01:31:31.733Z,23.20
2022-08-25T01:33:59.077Z,23.00
2022-08-25T01:36:27.168Z,22.80
2022-08-25T01:38:54.288Z,22.90
2022-08-25T01:41:22.539Z,22.90
2022-08-25T01:43:50.030Z,22.50
2022-08-25T01:46:17.150Z,22.50
2022-08-25T01:48:44.299Z,22.60
2022-08-25T01:51:11.407Z,22.70
2022-08-25T01:53:38.898Z,22.90
2022-08-25T01:56:09.986Z,23.00
2022-08-25T01:58:38.167Z,23.10
2022-08-25T02:01:11.229Z,23.20
2022-08-25T02:03:38.869Z,23.30
2022-08-25T02:06:11.662Z,23.40
2022-08-25T02:08:38.936Z,23.30
2022-08-25T02:11:06.826Z,23.30
2022-08-25T02:13:37.223Z,23.10
2022-08-25T02:16:05.047Z,23.20
2022-08-25T02:18:48.080Z,23.00
2022-08-25T02:21:28.970Z,23.00
2022-08-25T02:24:33.520Z,23.00
2022-08-25T02:27:14.782Z,22.90
2022-08-25T02:29:41.891Z,22.90
2022-08-25T02:32:10.793Z,22.90
2022-08-25T02:34:38.029Z,23.00
2022-08-25T02:37:05.256Z,23.00
2022-08-25T02:39:32.376Z,23.20
2022-08-25T02:41:59.909Z,22.70
2022-08-25T02:44:27.019Z,23.10
2022-08-25T02:46:54.113Z,23.20
2022-08-25T02:49:21.231Z,23.10
2022-08-25T02:51:48.349Z,22.90
2022-08-25T02:54:16.084Z,23.00
2022-08-25T02:56:43.305Z,22.70
2022-08-25T02:59:11.407Z,22.80
2022-08-25T03:01:38.542Z,22.80
2022-08-25T03:04:07.123Z,22.60
2022-08-25T03:06:34.222Z,22.40
2022-08-25T03:09:01.497Z,22.40
2022-08-25T03:11:28.720Z,22.50
2022-08-25T03:13:56.539Z,22.40
2022-08-25T03:16:23.998Z,22.60
2022-08-25T03:18:55.289Z,22.80
2022-08-25T03:21:23.185Z,22.70
2022-08-25T03:23:50.350Z,22.70
2022-08-25T03:26:36.393Z,22.90
2022-08-25T03:29:06.434Z,22.90
2022-08-25T03:31:34.496Z,22.80
2022-08-25T03:34:01.785Z,22.90
2022-08-25T03:36:29.082Z,22.80
2022-08-25T03:38:56.206Z,22.90
2022-08-25T03:41:29.093Z,22.70
2022-08-25T03:43:56.734Z,22.90
2022-08-25T03:46:25.444Z,22.80
2022-08-25T03:48:52.749Z,22.70
2022-08-25T03:51:23.775Z,22.70
2022-08-25T03:53:51.075Z,22.70
2022-08-25T03:56:18.304Z,22.50
2022-08-25T03:58:45.598Z,22.70
2022-08-25T04:01:12.729Z,22.40
2022-08-25T04:03:39.869Z,22.30
2022-08-25T04:06:07.356Z,22.30
2022-08-25T04:08:34.723Z,22.40
2022-08-25T04:11:13.086Z,22.30
2022-08-25T04:13:41.870Z,22.20
2022-08-25T04:16:17.281Z,22.30
2022-08-25T04:18:44.673Z,22.60
2022-08-25T04:21:11.926Z,22.60
2022-08-25T04:23:40.642Z,22.70
2022-08-25T04:26:08.770Z,22.80
2022-08-25T04:28:35.870Z,22.80
2022-08-25T04:31:05.554Z,22.70
2022-08-25T04:33:32.754Z,22.80
2022-08-25T04:35:59.922Z,22.80
2022-08-25T04:38:27.441Z,22.60
2022-08-25T04:40:58.102Z,22.50
2022-08-25T04:43:25.446Z,22.40
2022-08-25T04:45:52.825Z,22.40
2022-08-25T04:48:19.953Z,22.00
2022-08-25T04:50:47.067Z,22.30
2022-08-25T04:53:14.479Z,22.40
2022-08-25T04:55:42.354Z,22.50
2022-08-25T04:58:12.082Z,22.50
2022-08-25T05:00:43.908Z,22.40
2022-08-25T05:03:11.253Z,22.50
2022-08-25T05:05:38.603Z,22.60
2022-08-25T05:08:06.583Z,22.50
2022-08-25T05:10:33.855Z,22.50
2022-08-25T05:13:00.995Z,22.50
2022-08-25T05:15:46.852Z,21.90
2022-08-25T05:18:18.503Z,22.30
2022-08-25T05:20:45.647Z,22.20
2022-08-25T05:23:15.464Z,22.30
2022-08-25T05:25:42.790Z,22.30
2022-08-25T05:28:09.935Z,22.30
2022-08-25T05:30:38.130Z,22.40
2022-08-25T05:33:05.349Z,22.30
2022-08-25T05:35:32.471Z,22.50
2022-08-25T05:37:59.633Z,22.80
2022-08-25T05:40:26.828Z,22.70
2022-08-25T05:42:54.430Z,22.90
2022-08-25T05:45:21.623Z,23.10
2022-08-25T05:47:48.965Z,23.00
2022-08-25T05:50:16.517Z,23.00
2022-08-25T05:52:44.182Z,23.10
2022-08-25T05:55:11.493Z,23.10
2022-08-25T05:57:38.603Z,23.40
2022-08-25T06:00:06.375Z,24.00
2022-08-25T06:02:44.626Z,24.70
2022-08-25T06:05:13.552Z,25.30
2022-08-25T06:07:40.733Z,26.70
2022-08-25T06:10:09.271Z,26.90
2022-08-25T06:12:36.379Z,25.90
2022-08-25T06:15:04.250Z,25.10
2022-08-25T06:17:31.628Z,25.00
2022-08-25T06:19:58.780Z,25.20
2022-08-25T06:22:25.881Z,26.20
2022-08-25T06:24:53.267Z,27.00
2022-08-25T06:27:20.439Z,27.40
2022-08-25T06:29:47.622Z,27.60
2022-08-25T06:32:14.844Z,27.70
2022-08-25T06:34:41.954Z,27.80
2022-08-25T06:37:09.049Z,28.20
2022-08-25T06:39:36.165Z,28.00
2022-08-25T06:42:03.342Z,27.70
2022-08-25T06:44:30.457Z,27.70
2022-08-25T06:46:57.657Z,27.50
2022-08-25T06:49:27.836Z,28.50
2022-08-25T06:51:55.096Z,28.70
2022-08-25T06:54:22.197Z,27.80
2022-08-25T06:56:49.575Z,27.40
2022-08-25T06:59:17.506Z,27.40
2022-08-25T07:01:44.933Z,27.00
2022-08-25T07:04:12.792Z,27.40
2022-08-25T07:06:40.682Z,27.60
2022-08-25T07:09:08.749Z,28.70
2022-08-25T07:11:35.895Z,30.30
2022-08-25T07:14:06.831Z,30.90
2022-08-25T07:16:34.746Z,32.50
2022-08-25T07:19:02.019Z,32.40
2022-08-25T07:21:33.375Z,32.50
2022-08-25T07:24:01.567Z,32.80
2022-08-25T07:26:38.825Z,32.40
2022-08-25T07:29:08.390Z,33.40
2022-08-25T07:31:35.572Z,33.90
2022-08-25T07:34:21.243Z,33.70
2022-08-25T07:36:48.390Z,34.60
2022-08-25T07:39:16.606Z,34.70
2022-08-25T07:41:44.014Z,34.50
2022-08-25T07:44:12.907Z,34.40
2022-08-25T07:46:40.250Z,35.40
2022-08-25T07:49:16.667Z,36.40
2022-08-25T07:52:04.662Z,37.00
2022-08-25T07:54:34.522Z,38.60
2022-08-25T07:57:06.114Z,36.90
2022-08-25T07:59:39.752Z,37.00
2022-08-25T08:02:18.315Z,36.50
2022-08-25T08:04:50.232Z,36.90
2022-08-25T08:07:23.049Z,37.50
2022-08-25T08:09:56.429Z,38.00
2022-08-25T08:12:33.976Z,37.60
2022-08-25T08:15:01.300Z,36.10
2022-08-25T08:17:28.576Z,35.70
2022-08-25T08:19:55.706Z,35.10
2022-08-25T08:22:23.397Z,33.70
2022-08-25T08:24:54.571Z,34.20
2022-08-25T08:27:23.710Z,32.90
2022-08-25T08:29:50.922Z,33.10
2022-08-25T08:32:18.696Z,32.40
2022-08-25T08:34:47.007Z,30.80
2022-08-25T08:37:18.565Z,31.20
2022-08-25T08:39:48.477Z,31.20
2022-08-25T08:42:18.779Z,31.50
2022-08-25T08:44:45.966Z,31.60
2022-08-25T08:47:13.034Z,30.50
2022-08-25T08:49:50.606Z,30.40
2022-08-25T08:52:18.217Z,30.80
2022-08-25T08:54:47.070Z,30.70
2022-08-25T08:57:16.461Z,30.70
2022-08-25T08:59:51.919Z,31.00
2022-08-25T09:02:39.407Z,30.80
2022-08-25T09:05:23.580Z,30.30
2022-08-25T09:07:55.057Z,31.00
2022-08-25T09:10:25.531Z,29.90
2022-08-25T09:12:57.330Z,30.40
2022-08-25T09:15:58.993Z,30.40
2022-08-25T09:18:41.109Z,30.80
2022-08-25T09:21:34.554Z,30.00
2022-08-25T09:24:05.649Z,29.20
2022-08-25T09:26:51.341Z,29.90
2022-08-25T09:29:20.513Z,29.50
2022-08-25T09:34:46.072Z,29.70
2022-08-25T09:37:39.623Z,30.50
2022-08-25T09:40:20.518Z,30.30
2022-08-25T09:45:43.683Z,30.10
2022-08-25T09:48:24.369Z,30.40
2022-08-25T09:50:52.058Z,30.20
2022-08-25T09:53:19.559Z,30.70
2022-08-25T09:55:53.626Z,30.90
2022-08-25T09:58:27.304Z,31.00
2022-08-25T10:01:27.170Z,31.20
2022-08-25T10:04:05.732Z,31.50
2022-08-25T10:06:46.063Z,31.10
2022-08-25T10:09:21.338Z,30.30
2022-08-25T10:11:49.003Z,30.90
2022-08-25T10:14:16.384Z,31.20
2022-08-25T10:16:46.863Z,31.40
2022-08-25T10:19:17.358Z,31.50
2022-08-25T10:21:44.470Z,31.40
2022-08-25T10:24:12.279Z,31.00
2022-08-25T10:26:43.853Z,31.30
2022-08-25T10:29:29.890Z,31.50
2022-08-25T10:32:02.177Z,31.80
2022-08-25T10:34:51.803Z,31.90
2022-08-25T10:37:34.783Z,31.60
2022-08-25T10:40:01.959Z,31.60
2022-08-25T10:42:47.742Z,31.10
2022-08-25T10:45:40.311Z,30.50
2022-08-25T10:48:13.296Z,29.50
2022-08-25T10:50:45.478Z,29.40
2022-08-25T10:53:16.005Z,30.30
2022-08-25T10:55:48.038Z,31.10
2022-08-25T10:58:23.317Z,31.60
2022-08-25T11:00:54.632Z,31.70
2022-08-25T11:03:40.649Z,31.80
2022-08-25T11:06:10.081Z,32.50
2022-08-25T11:08:40.255Z,32.90
2022-08-25T11:11:09.753Z,33.20
2022-08-25T11:13:48.482Z,33.50
2022-08-25T11:16:21.455Z,34.10
2022-08-25T11:18:54.352Z,34.30
2022-08-25T11:21:42.963Z,34.20
2022-08-25T11:24:28.907Z,33.30
2022-08-25T11:27:02.264Z,33.60
2022-08-25T11:29:35.823Z,33.40
2022-08-25T11:32:03.846Z,33.30
2022-08-25T11:34:33.062Z,33.80
2022-08-25T11:37:07.736Z,34.00
2022-08-25T11:39:47.570Z,34.40
2022-08-25T11:42:33.887Z,34.30
2022-08-25T11:45:07.768Z,34.20
2022-08-25T11:47:51.308Z,34.00
2022-08-25T11:50:21.744Z,34.20
2022-08-25T11:53:03.807Z,34.60
2022-08-25T11:56:16.785Z,32.50
2022-08-25T11:59:19.329Z,32.70
2022-08-25T12:02:07.445Z,32.40
2022-08-25T12:04:44.755Z,33.60
2022-08-25T12:07:17.132Z,34.40
2022-08-25T12:09:48.529Z,34.00
2022-08-25T12:12:27.984Z,34.50
2022-08-25T12:14:55.099Z,34.60
2022-08-25T12:17:24.386Z,35.00
2022-08-25T12:19:53.102Z,35.70
2022-08-25T12:22:22.073Z,35.40
2022-08-25T12:24:52.043Z,35.30
2022-08-25T12:27:25.150Z,35.30
2022-08-25T12:30:16.049Z,35.30
2022-08-25T12:32:57.652Z,35.80
2022-08-25T12:35:32.048Z,34.80
2022-08-25T12:38:00.397Z,34.90
2022-08-25T12:40:29.377Z,35.00
2022-08-25T12:43:10.629Z,34.50
2022-08-25T12:45:42.458Z,35.00
2022-08-25T12:48:27.867Z,35.40
2022-08-25T12:51:16.070Z,35.40
2022-08-25T12:53:47.134Z,35.60
2022-08-25T12:56:22.731Z,35.10
2022-08-25T12:59:01.139Z,35.90
2022-08-25T13:01:35.893Z,35.30
2022-08-25T13:04:03.523Z,35.30
2022-08-25T13:06:37.007Z,34.90
2022-08-25T13:09:16.800Z,35.60
2022-08-25T13:11:47.029Z,35.90
2022-08-25T13:14:26.777Z,36.70
2022-08-25T13:16:54.897Z,36.70
2022-08-25T13:19:22.513Z,36.60
2022-08-25T13:21:49.617Z,36.70
2022-08-25T13:24:21.918Z,36.60
2022-08-25T13:26:50.561Z,35.60
2022-08-25T13:29:22.300Z,36.80
2022-08-25T13:31:50.750Z,37.00
2022-08-25T13:34:19.692Z,37.00
2022-08-25T13:37:05.800Z,36.60
2022-08-25T13:39:54.843Z,36.50
2022-08-25T13:42:27.439Z,36.40
2022-08-25T13:44:56.372Z,36.90
2022-08-25T13:47:33.917Z,36.80
2022-08-25T13:50:16.495Z,36.60
2022-08-25T13:52:47.391Z,36.20
2022-08-25T13:55:19.784Z,37.20
2022-08-25T13:57:47.503Z,36.30
2022-08-25T14:00:14.685Z,36.90
2022-08-25T14:02:45.789Z,36.80
2022-08-25T14:05:28.445Z,37.00
2022-08-25T14:08:09.146Z,37.80
2022-08-25T14:10:44.016Z,36.90
2022-08-25T14:13:12.891Z,37.90
2022-08-25T14:15:40.226Z,37.40
2022-08-25T14:18:14.088Z,37.50
2022-08-25T14:20:49.275Z,37.20
2022-08-25T14:23:19.227Z,36.60
2022-08-25T14:25:46.981Z,36.00
2022-08-25T14:28:15.574Z,35.10
2022-08-25T14:30:46.009Z,36.40
2022-08-25T14:33:14.190Z,37.10
2022-08-25T14:35:41.974Z,36.80
2022-08-25T14:38:09.970Z,35.20
2022-08-25T14:40:37.848Z,36.20
2022-08-25T14:43:05.918Z,36.50
2022-08-25T14:45:38.452Z,36.80
2022-08-25T14:48:10.428Z,36.30
2022-08-25T14:50:38.255Z,35.50
2022-08-25T14:53:09.559Z,35.90
2022-08-25T14:55:37.040Z,36.20
2022-08-25T14:58:04.306Z,36.80
2022-08-25T15:00:35.544Z,37.50
2022-08-25T15:03:03.041Z,35.60
2022-08-25T15:05:31.822Z,35.10
2022-08-25T15:08:17.693Z,34.90
2022-08-25T15:10:47.604Z,35.40
2022-08-25T15:13:15.001Z,36.00
2022-08-25T15:15:52.362Z,35.90
2022-08-25T15:18:22.877Z,36.40
2022-08-25T15:20:55.908Z,37.00
2022-08-25T15:23:31.139Z,37.40
2022-08-25T15:25:58.657Z,36.50
2022-08-25T15:28:26.523Z,36.90
2022-08-25T15:30:58.327Z,36.60
2022-08-25T15:33:26.686Z,36.50
2022-08-25T15:35:54.131Z,36.80
2022-08-25T15:38:21.481Z,36.80
2022-08-25T15:40:48.590Z,37.30
2022-08-25T15:43:15.738Z,37.30
2022-08-25T15:45:46.266Z,37.80
2022-08-25T15:48:13.623Z,37.70
2022-08-25T15:50:51.097Z,36.00
2022-08-25T15:53:57.520Z,37.10
2022-08-25T15:56:34.760Z,37.90
2022-08-25T15:59:40.235Z,37.80
2022-08-25T16:02:15.192Z,37.30
2022-08-25T16:04:46.534Z,38.00
2022-08-25T16:09:59.380Z,37.80
2022-08-25T16:12:37.653Z,37.10
2022-08-25T16:15:05.683Z,36.10
2022-08-25T16:17:32.837Z,35.30
2022-08-25T16:20:00.054Z,35.20
2022-08-25T16:22:27.233Z,34.70
2022-08-25T16:24:56.168Z,34.50
2022-08-25T16:27:25.066Z,34.40
2022-08-25T16:29:52.477Z,33.90
2022-08-25T16:32:22.006Z,34.30
2022-08-25T16:34:50.368Z,34.00
2022-08-25T16:37:17.490Z,34.20
2022-08-25T16:39:45.743Z,33.80
2022-08-25T16:42:13.411Z,34.20
2022-08-25T16:44:40.650Z,34.00
2022-08-25T16:47:08.830Z,34.00
2022-08-25T16:49:36.423Z,34.10
2022-08-25T16:52:25.067Z,34.10
2022-08-25T16:55:14.679Z,33.50
2022-08-25T16:57:46.068Z,33.90
2022-08-25T17:00:17.113Z,33.70
2022-08-25T17:02:44.316Z,33.90
2022-08-25T17:05:12.557Z,33.80
2022-08-25T17:07:39.734Z,33.20
2022-08-25T17:10:07.366Z,33.20
2022-08-25T17:12:40.578Z,32.60
2022-08-25T17:15:07.838Z,33.00
2022-08-25T17:17:36.398Z,33.30
2022-08-25T17:20:04.581Z,33.00
2022-08-25T17:22:32.151Z,33.20
2022-08-25T17:25:01.187Z,33.30
2022-08-25T17:27:28.767Z,33.20
2022-08-25T17:29:56.044Z,33.10
2022-08-25T17:32:28.961Z,33.10
2022-08-25T17:34:58.024Z,32.60
2022-08-25T17:37:25.638Z,32.30
2022-08-25T17:39:56.806Z,32.20
2022-08-25T17:42:31.582Z,32.40
2022-08-25T17:45:09.991Z,32.20
2022-08-25T17:47:41.545Z,32.30
2022-08-25T17:50:17.531Z,32.30
2022-08-25T17:52:44.656Z,31.90
2022-08-25T17:55:12.059Z,31.80
2022-08-25T17:57:39.291Z,31.80
2022-08-25T18:00:10.409Z,31.80
2022-08-25T18:02:38.390Z,31.90
2022-08-25T18:05:06.093Z,31.80
2022-08-25T18:07:33.323Z,31.90
2022-08-25T18:10:01.105Z,32.00
2022-08-25T18:12:28.214Z,31.80
2022-08-25T18:14:55.323Z,31.90
2022-08-25T18:17:23.050Z,31.80
2022-08-25T18:19:50.725Z,31.60
2022-08-25T18:22:18.045Z,31.50
2022-08-25T18:24:45.511Z,31.20
2022-08-25T18:27:13.544Z,30.90
2022-08-25T18:29:41.814Z,30.70
2022-08-25T18:32:09.617Z,30.60
2022-08-25T18:34:39.564Z,30.40
2022-08-25T18:37:26.230Z,30.30
2022-08-25T18:40:12.032Z,30.10
2022-08-25T18:42:41.141Z,29.80
2022-08-25T18:45:09.416Z,29.50
2022-08-25T18:47:39.631Z,29.60
2022-08-25T18:50:07.854Z,29.50
2022-08-25T18:52:34.956Z,29.40
2022-08-25T18:55:03.016Z,29.40
2022-08-25T18:57:30.506Z,29.20
2022-08-25T18:59:57.623Z,28.90
2022-08-25T19:02:25.047Z,28.80
2022-08-25T19:04:52.804Z,28.90
2022-08-25T19:07:19.964Z,28.90
2022-08-25T19:09:47.086Z,28.90
2022-08-25T19:12:22.186Z,28.70
2022-08-25T19:14:50.067Z,28.50
2022-08-25T19:17:17.304Z,28.60
2022-08-25T19:19:44.611Z,28.40
2022-08-25T19:22:26.609Z,28.50
2022-08-25T19:24:59.487Z,28.60
2022-08-25T19:27:26.630Z,28.50
2022-08-25T19:29:53.848Z,28.50
2022-08-25T19:32:21.506Z,28.40
2022-08-25T19:34:51.373Z,28.40
2022-08-25T19:37:19.105Z,28.20
2022-08-25T19:39:53.014Z,28.10
2022-08-25T19:42:36.771Z,28.00
2022-08-25T19:45:06.838Z,27.80
2022-08-25T19:47:34.170Z,27.90
2022-08-25T19:50:01.603Z,28.00
2022-08-25T19:52:28.924Z,27.90
2022-08-25T19:54:56.065Z,27.90
2022-08-25T19:57:28.536Z,27.80
2022-08-25T20:00:11.925Z,27.90
2022-08-25T20:02:39.706Z,28.00
2022-08-25T20:05:07.813Z,27.90
2022-08-25T20:07:42.402Z,27.80
2022-08-25T20:10:14.325Z,27.60
2022-08-25T20:12:47.691Z,27.70
2022-08-25T20:15:16.504Z,27.70
2022-08-25T20:17:44.298Z,27.80
2022-08-25T20:20:13.558Z,27.80
2022-08-25T20:22:40.790Z,27.50
2022-08-25T20:25:13.610Z,27.40
2022-08-25T20:27:42.335Z,27.30
2022-08-25T20:30:14.279Z,27.40
2022-08-25T20:33:24.534Z,27.40
2022-08-25T20:36:15.601Z,27.40
2022-08-25T20:39:08.177Z,27.40
2022-08-25T20:41:40.065Z,27.40
2022-08-25T20:44:08.242Z,27.40
2022-08-25T20:46:35.466Z,27.30
2022-08-25T20:49:05.417Z,27.30
2022-08-25T20:51:32.596Z,27.10
2022-08-25T20:53:59.819Z,26.90
2022-08-25T20:56:29.728Z,26.80
2022-08-25T20:58:56.871Z,26.90
2022-08-25T21:01:37.534Z,26.90
2022-08-25T21:04:05.956Z,26.70
2022-08-25T21:06:36.418Z,26.60
2022-08-25T21:09:15.639Z,26.80
2022-08-25T21:11:43.560Z,26.80
2022-08-25T21:14:10.658Z,27.00
2022-08-25T21:16:38.317Z,26.90
2022-08-25T21:19:06.025Z,26.90
2022-08-25T21:21:37.516Z,26.80
2022-08-25T21:24:08.555Z,26.70
2022-08-25T21:26:37.590Z,26.60
2022-08-25T21:29:15.828Z,26.40
2022-08-25T21:31:43.503Z,26.30
2022-08-25T21:34:10.817Z,26.50
2022-08-25T21:36:39.110Z,26.60
2022-08-25T21:39:06.463Z,26.60
2022-08-25T21:41:34.285Z,26.70
2022-08-25T21:44:01.438Z,26.70
2022-08-25T21:46:30.890Z,26.60
2022-08-25T21:48:58.872Z,26.60
2022-08-25T21:51:31.482Z,26.70
2022-08-25T21:54:11.462Z,26.70
2022-08-25T21:56:42.698Z,26.90
2022-08-25T21:59:11.261Z,27.00
2022-08-25T22:01:38.568Z,27.00
2022-08-25T22:04:05.963Z,26.90
2022-08-25T22:06:33.825Z,26.70
2022-08-25T22:09:00.978Z,26.60
2022-08-25T22:11:28.285Z,26.80
2022-08-25T22:14:01.040Z,26.80
2022-08-25T22:16:28.207Z,26.90
2022-08-25T22:18:56.446Z,27.10
2022-08-25T22:21:23.712Z,26.90
2022-08-25T22:23:51.198Z,27.20
2022-08-25T22:26:22.133Z,27.40
2022-08-25T22:28:49.367Z,27.20
2022-08-25T22:31:20.745Z,26.90
2022-08-25T22:33:48.570Z,26.70
2022-08-25T22:36:24.447Z,26.90
2022-08-25T22:38:52.550Z,26.90
2022-08-25T22:41:21.381Z,26.90
2022-08-25T22:43:52.974Z,27.10
2022-08-25T22:46:21.384Z,27.20
2022-08-25T22:48:50.254Z,27.10
2022-08-25T22:51:18.574Z,26.90
2022-08-25T22:53:46.878Z,26.90
2022-08-25T22:56:17.281Z,26.80
2022-08-25T22:58:51.772Z,26.70
2022-08-25T23:01:20.595Z,26.50
2022-08-25T23:03:47.954Z,26.60
2022-08-25T23:06:18.659Z,26.60
2022-08-25T23:08:48.269Z,26.60
2022-08-25T23:11:15.550Z,26.50
2022-08-25T23:13:42.776Z,26.40
2022-08-25T23:16:10.068Z,26.60
2022-08-25T23:18:41.822Z,26.70
2022-08-25T23:21:29.536Z,26.30
2022-08-25T23:24:02.448Z,26.40
2022-08-25T23:26:31.429Z,26.30
2022-08-25T23:28:58.777Z,26.30
2022-08-25T23:31:25.924Z,26.00
2022-08-25T23:33:53.058Z,26.00
2022-08-25T23:36:21.677Z,25.70
2022-08-25T23:38:51.524Z,25.50
2022-08-25T23:41:19.997Z,25.30
2022-08-25T23:43:47.881Z,25.20
2022-08-25T23:46:16.835Z,25.30
2022-08-25T23:48:44.519Z,25.20
2022-08-25T23:51:11.898Z,25.10
2022-08-25T23:53:39.062Z,25.30
2022-08-25T23:56:06.398Z,25.40
2022-08-25T23:58:33.544Z,25.20
